CheckWX is a tool to help pilots better visualize weather data.  It is not intended as a substitute for an official pre-flight weather briefing.

14:59:29 UTC

KMTH METAR
The Florida Keys Marathon International Airport
Marathon, Florida, USA
Current

1 hour ago

KMTH 221353Z AUTO 12005KT 10SM CLR 28/13 A3013 RMK AO2 SLP203 T02780133
Observed
Apr-22 @ 13:53 UTC
Wind
  • 120° at 5 KTS
Visibility
10 SM
Flight Rules
VFR
Cloud Levels
  • Clear skies
Temperature
28°C / 82°F
Dewpoint
13°C / 55°F
Heat Index
27°C / 81°F
Humidity
40%
Altimeter
30.13" Hg
Pressure
1020.32 hPa
Previous

2 hours ago

KMTH 221253Z AUTO 26/13 A3013 RMK AO2 SLP202 T02560133 PWINO $
Observed
Apr-22 @ 12:53 UTC
Visibility
Temperature
26°C / 79°F
Dewpoint
13°C / 55°F
Humidity
45%
Altimeter
30.13" Hg
Pressure
1020.32 hPa
Previous

3 hours ago

KMTH 221153Z AUTO 10SM 24/15 A3013 RMK AO2 SLP201 T02390150 10239 20211 52013 $
Observed
Apr-22 @ 11:53 UTC
Visibility
10 SM
Temperature
24°C / 75°F
Dewpoint
15°C / 59°F
Humidity
57%
Altimeter
30.13" Hg
Pressure
1020.32 hPa